createdAt,value
2022-10-29T00:02:11.063Z,13.20
2022-10-29T00:07:13.200Z,14.82
2022-10-29T00:12:13.968Z,14.05
2022-10-29T00:17:15.891Z,14.45
2022-10-29T00:22:18.072Z,14.23
2022-10-29T00:27:18.837Z,14.25
2022-10-29T00:32:19.781Z,15.30
2022-10-29T00:37:21.956Z,15.23
2022-10-29T00:42:22.724Z,13.68
2022-10-29T00:47:27.366Z,13.40
2022-10-29T00:52:33.273Z,14.35
2022-10-29T00:57:40.512Z,15.43
2022-10-29T01:02:42.214Z,14.65
2022-10-29T01:07:44.476Z,15.52
2022-10-29T01:13:09.976Z,15.75
2022-10-29T01:18:18.299Z,15.73
2022-10-29T01:24:06.293Z,14.70
2022-10-29T01:29:21.271Z,15.07
2022-10-29T01:34:29.957Z,15.38
2022-10-29T01:39:38.787Z,15.98
2022-10-29T01:44:46.506Z,15.52
2022-10-29T01:49:52.563Z,15.15
2022-10-29T01:54:53.305Z,14.65
2022-10-29T01:59:56.342Z,14.52
2022-10-29T02:05:12.360Z,14.30
2022-10-29T02:10:20.421Z,15.40
2022-10-29T02:15:26.426Z,15.18
2022-10-29T02:20:28.677Z,15.15
2022-10-29T02:25:29.534Z,14.98
2022-10-29T02:30:33.096Z,15.88
2022-10-29T02:35:35.244Z,15.48
2022-10-29T02:40:36.024Z,14.32
2022-10-29T02:45:36.826Z,15.82
2022-10-29T02:50:38.942Z,15.15
2022-10-29T02:55:39.726Z,15.68
2022-10-29T03:00:40.533Z,15.18
2022-10-29T03:05:46.570Z,15.90
2022-10-29T03:10:49.867Z,15.45
2022-10-29T03:15:50.645Z,16.42
2022-10-29T03:20:52.945Z,15.80
2022-10-29T03:25:56.034Z,16.63
2022-10-29T03:30:57.808Z,17.23
2022-10-29T03:36:02.151Z,15.65
2022-10-29T03:41:08.513Z,17.58
2022-10-29T03:46:09.436Z,16.15
2022-10-29T03:51:11.997Z,17.40
2022-10-29T03:56:12.809Z,16.88
2022-10-29T04:01:13.648Z,17.98
2022-10-29T04:06:18.275Z,19.60
2022-10-29T04:11:19.192Z,18.95
2022-10-29T04:16:19.996Z,17.73
2022-10-29T04:32:05.255Z,17.98
2022-10-29T04:37:07.928Z,17.95
2022-10-29T04:42:08.692Z,17.35
2022-10-29T04:47:09.462Z,18.00
2022-10-29T04:52:11.582Z,18.63
2022-10-29T04:57:12.429Z,18.73
2022-10-29T05:02:13.179Z,17.15
2022-10-29T05:07:15.371Z,17.50
2022-10-29T05:12:16.172Z,19.75
2022-10-29T05:17:17.139Z,18.17
2022-10-29T05:22:19.400Z,18.02
2022-10-29T05:27:20.192Z,18.45
2022-10-29T05:32:21.009Z,20.08
2022-10-29T05:37:25.478Z,18.27
2022-10-29T05:42:26.323Z,18.98
2022-10-29T05:47:27.123Z,18.10
2022-10-29T05:52:29.216Z,19.10
2022-10-29T05:57:30.380Z,18.52
2022-10-29T06:02:31.369Z,17.88
2022-10-29T06:07:33.656Z,19.40
2022-10-29T06:12:35.093Z,18.02
2022-10-29T06:17:35.947Z,17.88
2022-10-29T06:22:38.244Z,18.08
2022-10-29T06:27:39.142Z,17.50
2022-10-29T06:32:39.935Z,19.05
2022-10-29T06:37:42.069Z,18.10
2022-10-29T06:42:42.876Z,18.45
2022-10-29T06:47:45.191Z,17.23
2022-10-29T06:52:55.413Z,18.05
2022-10-29T06:58:00.504Z,17.75
2022-10-29T07:03:01.425Z,17.13
2022-10-29T07:08:06.236Z,18.25
2022-10-29T07:13:07.017Z,17.25
2022-10-29T07:18:10.590Z,15.85
2022-10-29T07:23:13.637Z,16.75
2022-10-29T07:28:16.283Z,17.90
2022-10-29T07:33:17.642Z,18.10
2022-10-29T07:38:19.873Z,17.40
2022-10-29T07:43:21.843Z,16.85
2022-10-29T07:48:23.765Z,19.38
2022-10-29T07:53:26.072Z,17.42
2022-10-29T07:58:27.479Z,17.17
2022-10-29T08:03:28.333Z,15.88
2022-10-29T08:08:30.961Z,15.20
2022-10-29T08:13:32.231Z,16.23
2022-10-29T08:18:33.005Z,17.92
2022-10-29T08:23:35.207Z,14.98
2022-10-29T08:28:36.077Z,14.70
2022-10-29T08:33:37.134Z,16.10
2022-10-29T08:38:40.287Z,15.68
2022-10-29T08:44:16.560Z,13.70
2022-10-29T08:49:20.837Z,14.55
2022-10-29T08:54:31.025Z,12.52
2022-10-29T08:59:36.735Z,12.15
2022-10-29T09:04:39.256Z,13.27
2022-10-29T09:09:45.578Z,11.90
2022-10-29T09:15:04.408Z,12.43
2022-10-29T09:20:24.357Z,11.52
2022-10-29T09:25:31.480Z,11.48
2022-10-29T09:30:32.651Z,10.70
2022-10-29T09:35:40.106Z,11.10
2022-10-29T09:40:43.870Z,11.23
2022-10-29T09:45:49.270Z,10.93
2022-10-29T09:51:00.796Z,11.05
2022-10-29T09:56:03.204Z,11.63
2022-10-29T10:01:04.048Z,10.40
2022-10-29T10:06:07.266Z,11.63
2022-10-29T10:11:19.644Z,11.45
2022-10-29T10:16:25.152Z,10.85
2022-10-29T10:21:27.620Z,11.07
2022-10-29T10:26:32.621Z,11.00
2022-10-29T10:31:33.574Z,11.30
2022-10-29T10:36:39.655Z,10.98
2022-10-29T10:41:44.286Z,12.20
2022-10-29T10:46:46.273Z,11.35
2022-10-29T10:51:51.712Z,10.30
2022-10-29T10:57:00.327Z,10.18
2022-10-29T11:02:03.076Z,8.90
2022-10-29T11:07:07.292Z,9.60
2022-10-29T11:12:14.748Z,9.48
2022-10-29T11:17:27.984Z,9.55
2022-10-29T11:22:34.861Z,10.13
2022-10-29T11:27:46.353Z,10.27
2022-10-29T11:32:57.851Z,11.25
2022-10-29T11:38:04.163Z,10.88
2022-10-29T11:43:12.058Z,10.55
2022-10-29T11:48:22.063Z,11.00
2022-10-29T11:53:34.160Z,11.15
2022-10-29T11:58:46.075Z,11.75
2022-10-29T12:04:14.937Z,11.40
2022-10-29T12:09:43.205Z,11.80
2022-10-29T12:14:50.096Z,11.82
2022-10-29T12:19:59.295Z,11.77
2022-10-29T12:25:15.192Z,13.57
2022-10-29T12:30:20.030Z,13.90
2022-10-29T12:35:28.722Z,12.90
2022-10-29T12:40:34.365Z,13.60
2022-10-29T12:45:59.585Z,12.77
2022-10-29T12:51:10.879Z,13.02
2022-10-29T12:56:16.398Z,12.35
2022-10-29T13:02:10.352Z,13.07
2022-10-29T13:07:24.604Z,13.32
2022-10-29T13:12:57.812Z,12.07
2022-10-29T13:18:05.806Z,12.82
2022-10-29T13:23:33.008Z,14.00
2022-10-29T13:28:52.071Z,12.75
2022-10-29T13:33:54.409Z,12.73
2022-10-29T13:39:07.455Z,12.10
2022-10-29T13:44:12.528Z,13.50
2022-10-29T13:49:19.205Z,12.65
2022-10-29T13:54:32.029Z,12.88
2022-10-29T13:59:40.935Z,13.77
2022-10-29T14:04:47.603Z,13.32
2022-10-29T14:09:52.911Z,14.45
2022-10-29T14:15:01.670Z,13.23
2022-10-29T14:20:03.930Z,14.80
2022-10-29T14:25:28.399Z,13.38
2022-10-29T14:30:29.354Z,15.27
2022-10-29T14:35:31.661Z,14.70
2022-10-29T14:40:35.751Z,14.20
2022-10-29T14:45:36.719Z,16.40
2022-10-29T14:50:39.142Z,14.07
2022-10-29T14:55:46.367Z,14.50
2022-10-29T15:00:55.183Z,13.82
2022-10-29T15:06:14.594Z,13.90
2022-10-29T15:11:36.747Z,14.05
2022-10-29T15:16:39.877Z,14.70
2022-10-29T15:21:45.716Z,13.40
2022-10-29T15:26:50.432Z,13.57
2022-10-29T15:31:53.630Z,13.90
2022-10-29T15:36:57.712Z,14.15
2022-10-29T15:42:00.827Z,14.00
2022-10-29T15:47:03.255Z,14.38
2022-10-29T15:52:05.734Z,13.48
2022-10-29T15:57:07.006Z,14.43
2022-10-29T16:02:11.963Z,14.70
2022-10-29T16:07:15.056Z,15.30
2022-10-29T16:12:16.022Z,14.93
2022-10-29T16:17:18.494Z,15.38
2022-10-29T16:22:29.547Z,14.85
2022-10-29T16:27:30.368Z,15.82
2022-10-29T16:32:31.372Z,15.05
2022-10-29T16:37:33.502Z,15.80
2022-10-29T16:42:36.296Z,15.80
2022-10-29T16:47:37.173Z,17.17
2022-10-29T16:52:39.383Z,16.42
2022-10-29T16:57:40.685Z,17.55
2022-10-29T17:02:44.567Z,15.90
2022-10-29T17:07:46.798Z,15.98
2022-10-29T17:12:48.368Z,16.33
2022-10-29T17:17:49.161Z,16.92
2022-10-29T17:22:51.383Z,19.55
2022-10-29T17:27:52.189Z,18.27
2022-10-29T17:32:53.000Z,17.65
2022-10-29T17:37:55.220Z,18.25
2022-10-29T17:42:56.321Z,20.05
2022-10-29T17:47:58.362Z,18.30
2022-10-29T17:53:00.742Z,18.40
2022-10-29T17:58:01.596Z,17.55
2022-10-29T18:03:02.577Z,17.33
2022-10-29T18:08:04.963Z,19.40
2022-10-29T18:13:05.764Z,19.80
2022-10-29T18:18:06.650Z,20.67
2022-10-29T18:23:10.932Z,19.45
2022-10-29T18:28:11.839Z,19.80
2022-10-29T18:33:12.730Z,20.80
2022-10-29T18:38:15.075Z,21.45
2022-10-29T18:43:15.844Z,20.20
2022-10-29T18:48:16.760Z,21.50
2022-10-29T18:53:19.602Z,21.05
2022-10-29T18:58:21.186Z,21.77
2022-10-29T19:03:22.216Z,20.67
2022-10-29T19:08:24.470Z,20.80
2022-10-29T19:13:25.471Z,20.33
2022-10-29T19:18:26.288Z,19.85
2022-10-29T19:23:28.413Z,21.38
2022-10-29T19:28:30.559Z,20.98
2022-10-29T19:33:31.381Z,20.60
2022-10-29T19:38:33.874Z,21.88
2022-10-29T19:43:34.699Z,21.73
2022-10-29T19:48:35.822Z,20.77
2022-10-29T19:53:41.636Z,22.17
2022-10-29T19:58:43.065Z,21.45
2022-10-29T20:03:44.425Z,22.67
2022-10-29T20:08:46.822Z,22.30
2022-10-29T20:13:47.588Z,23.48
2022-10-29T20:18:49.759Z,22.40
2022-10-29T20:23:51.896Z,23.10
2022-10-29T20:28:52.736Z,22.73
2022-10-29T20:33:55.161Z,23.90
2022-10-29T20:38:57.681Z,22.15
2022-10-29T20:44:01.126Z,21.77
2022-10-29T20:49:02.014Z,24.02
2022-10-29T20:54:04.317Z,22.88
2022-10-29T20:59:05.105Z,21.98
2022-10-29T21:04:06.093Z,22.77
2022-10-29T21:09:08.239Z,22.55
2022-10-29T21:14:09.028Z,21.95
2022-10-29T21:19:09.855Z,23.50
2022-10-29T21:24:12.096Z,23.92
2022-10-29T21:29:12.924Z,22.63
2022-10-29T21:34:13.807Z,21.88
2022-10-29T21:39:15.964Z,23.98
2022-10-29T21:44:16.812Z,22.30
2022-10-29T21:49:17.605Z,22.92
2022-10-29T21:54:21.873Z,22.85
2022-10-29T21:59:25.280Z,23.10
2022-10-29T22:04:26.150Z,23.25
2022-10-29T22:09:28.316Z,21.58
2022-10-29T22:14:29.168Z,23.50
2022-10-29T22:19:29.930Z,22.90
2022-10-29T22:24:32.195Z,21.80
2022-10-29T22:29:32.993Z,22.58
2022-10-29T22:34:33.767Z,21.60
2022-10-29T22:39:35.912Z,23.90
2022-10-29T22:44:36.675Z,22.35
2022-10-29T22:49:37.431Z,22.08
2022-10-29T22:54:39.593Z,22.17
2022-10-29T22:59:40.360Z,23.10
2022-10-29T23:04:41.209Z,21.90
2022-10-29T23:09:43.339Z,24.73
2022-10-29T23:14:44.101Z,22.45
2022-10-29T23:19:44.894Z,22.95
2022-10-29T23:24:47.033Z,24.50
2022-10-29T23:29:47.848Z,21.98
2022-10-29T23:34:49.952Z,22.13
2022-10-29T23:39:52.075Z,22.33
2022-10-29T23:44:52.911Z,20.42
2022-10-29T23:49:53.697Z,22.00
2022-10-29T23:54:55.814Z,19.75
2022-10-29T23:59:56.572Z,20.83
